RORT(METAR)
12/11 16:00
RORT 110700Z 35020KT 8000 FEW008 SCT016 BKN023 24/22 Q1014 RMK
A2996=
戻る
トップページへ戻る
IMOC Co,.Ltd.